• Join FlightAware (Why Join?)
  • Login
  • US Flag 
05:14AM EDT


 

Airport Tracker/Info


-or-


 

Live Flight TrackerFlight Track Log ✈ DAL6048 ✈ 24-Apr-2013 ✈ KMHT - KLGA

Flight Track Log - Related Links

Times and Time Zones

All times are in EDT time to prevent confusion due to time zone crossing. See the DAL6048 flight status page for this flight to view local times or setup timezone preferences in your user account.

Time Position Orientation Groundspeed Altitude Reporting Facility
EDT Latitude Longitude Course Direction KTS MPH feet Rate Location/Type
11:52AM 42.9500 -71.4333 232° Southwest 162 186 1,100  Level KA90
11:53AM 43.0028 -71.4778 328° Northwest 215 247 4,500 2,400 Climbing Boston Center
11:54AM 43.0344 -71.5397 305° West 209 241 6,800 2,580 Climbing Boston Center
11:55AM 42.6470 -71.7720 236° Southwest  Level Estimated
11:55AM 43.0728 -71.6328 299° West 250 288 9,700  Level Boston Center
11:56AM 42.5754 -71.8556 231° Southwest  Level Estimated
11:56AM 43.0486 -71.7525 255° West 279 321 10,000  Level Boston Center
11:57AM 42.5037 -71.9389 232° Southwest  Level Estimated
11:57AM 43.0200 -71.8578 250° West 311 358 10,800  Level Boston Center
11:58AM 42.9244 -71.9553 217° Southwest 347 399 12,600 1,680 Climbing Boston Center
11:59AM 42.8333 -72.0467 216° Southwest 372 428 14,200 1,440 Climbing Boston Center
12:00PM 42.7583 -72.1233 217° Southwest 383 441 15,500 900 Climbing Boston Center
12:01PM 42.6628 -72.2142 215° Southwest 383 441 16,000 240 Climbing Boston Center
12:02PM 42.5900 -72.2933 219° Southwest 383 441 16,000 -60 Level Boston Center
12:03PM 42.5233 -72.3611 217° Southwest 383 441 15,900 -360 Descending Boston Center
12:04PM 42.4483 -72.4542 222° Southwest 383 441 15,300 -600 Descending Boston Center
12:05PM 42.3733 -72.5636 227° Southwest 349 402 14,700 -660 Descending Boston Center
12:06PM 42.3022 -72.6647 226° Southwest 343 395 14,000 -780 Descending Boston Center
12:07PM 42.2353 -72.7625 227° Southwest 349 402 13,200 -660 Descending Boston Center
12:08PM 42.1683 -72.8433 222° Southwest 355 409 12,700 -540 Descending Boston Center
12:09PM 42.0869 -72.8961 206° Southwest 360 414 12,200 -240 Descending Boston Center
12:11PM 41.9297 -73.0792 221° Southwest 341 392 12,000 -120 Descending Boston Center
12:12PM 41.8708 -73.1761 231° Southwest 341 392 12,000  Level Boston Center
12:13PM 41.8139 -73.2728 232° Southwest 341 392 12,000  Level Boston Center
12:14PM 41.7525 -73.3667 229° Southwest 346 398 12,000  Level Boston Center
12:15PM 41.7019 -73.4522 232° Southwest 340 391 12,000  Level Boston Center
12:16PM 41.6469 -73.5431 231° Southwest 305 351 12,000 -300 Level Boston Center
12:17PM 41.6025 -73.6117 229° Southwest 281 323 11,500 -900 Descending Boston Center
12:18PM 41.5600 -73.6803 230° Southwest 276 318 10,300 -1,140 Descending Boston Center
12:19PM 41.5000 -73.7833 232° Southwest 258 297 9,100 -600 Descending New York TRACON
12:20PM 41.4500 -73.8500 225° Southwest 261 300 9,100 -120 Level New York TRACON
12:21PM 41.3833 -73.8333 169° South 289 333 8,900 -600 Descending New York TRACON
12:22PM 41.3167 -73.7667 143° Southeast 280 322 8,000 -960 Descending New York TRACON
12:23PM 41.2500 -73.7167 151° Southeast 280 322 7,100 -1,020 Descending New York TRACON
12:24PM 41.2000 -73.6667 143° Southeast 271 312 6,100 -960 Descending New York TRACON
12:25PM 41.1333 -73.6167 151° Southeast 238 274 5,200 -960 Descending New York TRACON
12:26PM 41.0833 -73.6167 180° South 195 224 4,200 -600 Descending New York TRACON
12:27PM 41.0333 -73.6667 217° Southwest 188 216 4,100 -60 Descending New York TRACON
12:28PM 41.0000 -73.6833 201° Southwest 190 219 4,100 -60 Level New York TRACON
12:29PM 40.9500 -73.7333 217° Southwest 189 217 4,000 -600 Descending New York TRACON
12:30PM 40.9000 -73.7667 207° Southwest 203 234 3,000 -1,020 Descending New York TRACON
12:31PM 40.8667 -73.8000 217° Southwest 165 190 2,000 -1,020 Descending New York TRACON